createdAt,value
2022-07-31T00:00:06.267Z,13.22
2022-07-31T00:00:40.329Z,13.22
2022-07-31T00:01:10.659Z,13.22
2022-07-31T00:01:45.727Z,13.22
2022-07-31T00:02:16.197Z,13.22
2022-07-31T00:02:39.714Z,13.22
2022-07-31T00:03:02.020Z,13.22
2022-07-31T00:03:36.503Z,13.22
2022-07-31T00:04:08.444Z,13.22
2022-07-31T00:04:40.341Z,13.22
2022-07-31T00:05:10.650Z,13.22
2022-07-31T00:05:47.849Z,13.22
2022-07-31T00:06:16.890Z,13.22
2022-07-31T00:06:39.695Z,13.22
2022-07-31T00:07:02.564Z,13.22
2022-07-31T00:07:36.383Z,13.22
2022-07-31T00:08:08.691Z,13.50
2022-07-31T00:08:40.524Z,13.50
2022-07-31T00:09:52.387Z,13.50
2022-07-31T00:10:00.081Z,13.50
2022-07-31T00:10:32.316Z,13.50
2022-07-31T00:11:04.436Z,13.50
2022-07-31T00:11:36.745Z,13.50
2022-07-31T00:12:08.307Z,13.50
2022-07-31T00:12:40.567Z,13.50
2022-07-31T00:13:10.628Z,13.38
2022-07-31T00:13:57.403Z,13.50
2022-07-31T00:14:16.618Z,13.50
2022-07-31T00:14:41.445Z,13.50
2022-07-31T00:15:03.105Z,13.50
2022-07-31T00:15:36.305Z,13.50
2022-07-31T00:16:08.237Z,13.38
2022-07-31T00:16:40.562Z,13.38
2022-07-31T00:17:10.586Z,13.38
2022-07-31T00:17:44.333Z,13.38
2022-07-31T00:18:17.550Z,13.27
2022-07-31T00:18:40.341Z,13.22
2022-07-31T00:19:02.570Z,13.38
2022-07-31T00:19:36.363Z,13.38
2022-07-31T00:20:08.299Z,13.38
2022-07-31T00:20:40.416Z,13.38
2022-07-31T00:21:10.793Z,13.38
2022-07-31T00:21:44.420Z,13.38
2022-07-31T00:22:17.400Z,13.38
2022-07-31T00:22:39.679Z,13.61
2022-07-31T00:23:01.490Z,13.61
2022-07-31T00:23:36.277Z,13.61
2022-07-31T00:24:08.328Z,13.61
2022-07-31T00:24:40.222Z,13.61
2022-07-31T00:25:10.597Z,13.61
2022-07-31T00:25:44.274Z,13.50
2022-07-31T00:26:17.862Z,13.61
2022-07-31T00:26:39.059Z,13.61
2022-07-31T00:27:02.187Z,13.61
2022-07-31T00:27:36.412Z,13.61
2022-07-31T00:28:08.266Z,13.61
2022-07-31T00:28:40.281Z,13.61
2022-07-31T00:29:10.826Z,13.61
2022-07-31T00:29:44.844Z,13.61
2022-07-31T00:30:18.310Z,13.72
2022-07-31T00:30:39.714Z,13.72
2022-07-31T00:31:05.095Z,13.72
2022-07-31T00:31:36.306Z,13.72
2022-07-31T00:32:08.434Z,13.61
2022-07-31T00:32:40.637Z,13.61
2022-07-31T00:33:10.584Z,13.61
2022-07-31T00:33:44.358Z,13.61
2022-07-31T00:34:16.317Z,13.50
2022-07-31T00:34:47.710Z,13.50
2022-07-31T00:35:01.706Z,13.50
2022-07-31T00:35:36.406Z,13.50
2022-07-31T00:36:08.502Z,13.72
2022-07-31T00:36:40.216Z,13.61
2022-07-31T00:37:10.853Z,13.61
2022-07-31T00:37:44.206Z,13.61
2022-07-31T00:38:27.120Z,13.61
2022-07-31T00:38:39.252Z,13.61
2022-07-31T00:39:01.985Z,13.61
2022-07-31T00:39:39.831Z,13.50
2022-07-31T00:40:08.357Z,13.50
2022-07-31T00:40:40.282Z,13.72
2022-07-31T00:41:10.698Z,13.61
2022-07-31T00:41:44.179Z,13.61
2022-07-31T00:42:19.704Z,13.61
2022-07-31T00:42:39.328Z,13.50
2022-07-31T00:43:01.650Z,13.50
2022-07-31T00:43:36.202Z,13.50
2022-07-31T00:44:09.722Z,13.50
2022-07-31T00:44:40.689Z,13.50
2022-07-31T00:45:10.724Z,13.38
2022-07-31T00:45:44.266Z,13.38
2022-07-31T00:46:16.240Z,13.38
2022-07-31T00:46:38.781Z,13.38
2022-07-31T00:47:01.892Z,13.38
2022-07-31T00:47:36.477Z,13.38
2022-07-31T00:48:08.306Z,13.27
2022-07-31T00:48:40.296Z,13.27
2022-07-31T00:49:10.898Z,13.27
2022-07-31T00:49:44.231Z,13.27
2022-07-31T00:50:16.193Z,13.27
2022-07-31T00:50:39.706Z,13.27
2022-07-31T00:51:02.050Z,13.27
2022-07-31T00:51:39.883Z,13.22
2022-07-31T00:52:08.141Z,13.22
2022-07-31T00:52:40.155Z,13.22
2022-07-31T00:53:10.766Z,13.38
2022-07-31T00:53:44.168Z,13.38
2022-07-31T00:54:22.995Z,13.38
2022-07-31T00:54:38.843Z,13.38
2022-07-31T00:55:01.826Z,13.38
2022-07-31T00:55:51.479Z,13.38
2022-07-31T00:56:08.419Z,13.27
2022-07-31T00:56:40.249Z,13.27
2022-07-31T00:57:10.654Z,13.27
2022-07-31T00:57:44.194Z,13.27
2022-07-31T00:58:16.498Z,13.27
2022-07-31T00:58:39.322Z,13.27
2022-07-31T00:59:01.813Z,13.22
2022-07-31T00:59:36.394Z,13.22
2022-07-31T01:00:08.446Z,13.22
2022-07-31T01:00:40.272Z,13.22
2022-07-31T01:01:10.799Z,13.22
2022-07-31T01:01:44.201Z,13.11
2022-07-31T01:02:16.539Z,13.11
2022-07-31T01:02:46.685Z,13.11
2022-07-31T01:03:02.045Z,13.11
2022-07-31T01:03:37.808Z,13.11
2022-07-31T01:04:08.123Z,13.11
2022-07-31T01:04:41.644Z,13.11
2022-07-31T01:05:10.597Z,13.27
2022-07-31T01:05:44.556Z,13.27
2022-07-31T01:06:20.630Z,13.27
2022-07-31T01:06:44.323Z,13.27
2022-07-31T01:07:03.619Z,13.27
2022-07-31T01:07:36.222Z,13.27
2022-07-31T01:08:07.502Z,13.27
2022-07-31T01:08:44.606Z,13.27
2022-07-31T01:09:07.061Z,13.27
2022-07-31T01:09:44.332Z,13.27
2022-07-31T01:10:16.306Z,13.22
2022-07-31T01:10:39.782Z,13.22
2022-07-31T01:11:02.039Z,13.22
2022-07-31T01:11:36.227Z,13.22
2022-07-31T01:12:08.266Z,13.11
2022-07-31T01:12:40.662Z,13.11
2022-07-31T01:13:12.205Z,13.11
2022-07-31T01:13:44.218Z,13.11
2022-07-31T01:14:19.822Z,13.11
2022-07-31T01:14:42.758Z,13.11
2022-07-31T01:15:04.326Z,13.11
2022-07-31T01:15:36.125Z,13.11
2022-07-31T01:16:08.121Z,13.11
2022-07-31T01:16:34.221Z,13.00
2022-07-31T01:17:11.052Z,13.00
2022-07-31T01:17:44.674Z,13.00
2022-07-31T01:18:16.759Z,13.00
2022-07-31T01:18:39.057Z,13.00
2022-07-31T01:19:01.810Z,13.00
2022-07-31T01:19:42.346Z,13.00
2022-07-31T01:20:08.520Z,12.88
2022-07-31T01:20:40.654Z,12.88
2022-07-31T01:21:11.305Z,12.88
2022-07-31T01:21:45.336Z,12.88
2022-07-31T01:22:34.567Z,12.88
2022-07-31T01:22:39.150Z,12.88
2022-07-31T01:23:05.045Z,12.77
2022-07-31T01:23:36.343Z,12.77
2022-07-31T01:24:08.241Z,12.77
2022-07-31T01:24:40.825Z,12.77
2022-07-31T01:25:12.257Z,12.77
2022-07-31T01:25:44.334Z,12.77
2022-07-31T01:26:16.345Z,12.72
2022-07-31T01:26:38.920Z,12.72
2022-07-31T01:27:01.716Z,12.72
2022-07-31T01:27:49.510Z,12.72
2022-07-31T01:28:10.094Z,12.88
2022-07-31T01:28:40.306Z,12.88
2022-07-31T01:29:17.346Z,13.00
2022-07-31T01:29:44.811Z,13.00
2022-07-31T01:30:17.315Z,13.00
2022-07-31T01:30:39.916Z,13.00
2022-07-31T01:31:24.427Z,13.00
2022-07-31T01:31:43.490Z,13.00
2022-07-31T01:32:08.346Z,12.88
2022-07-31T01:32:40.329Z,12.88
2022-07-31T01:33:12.401Z,12.88
2022-07-31T01:33:44.704Z,13.00
2022-07-31T01:34:16.767Z,12.88
2022-07-31T01:34:39.782Z,12.88
2022-07-31T01:35:02.966Z,12.88
2022-07-31T01:35:36.263Z,12.88
2022-07-31T01:36:08.355Z,12.88
2022-07-31T01:36:40.851Z,12.88
2022-07-31T01:37:14.306Z,12.88
2022-07-31T01:37:44.233Z,12.77
2022-07-31T01:38:16.203Z,12.77
2022-07-31T01:38:43.770Z,12.77
2022-07-31T01:39:01.617Z,12.77
2022-07-31T01:39:36.409Z,12.77
2022-07-31T01:40:08.218Z,12.72
2022-07-31T01:40:40.917Z,12.72
2022-07-31T01:41:10.907Z,12.88
2022-07-31T01:41:46.077Z,12.88
2022-07-31T01:42:16.565Z,12.88
2022-07-31T01:42:40.774Z,12.88
2022-07-31T01:43:02.987Z,12.77
2022-07-31T01:43:36.302Z,12.77
2022-07-31T01:44:14.267Z,12.77
2022-07-31T01:44:40.473Z,12.77
2022-07-31T01:45:11.490Z,12.77
2022-07-31T01:45:44.719Z,12.77
2022-07-31T01:46:16.290Z,12.77
2022-07-31T01:46:41.569Z,12.72
2022-07-31T01:47:02.807Z,12.72
2022-07-31T01:47:36.521Z,12.72
2022-07-31T01:48:09.467Z,12.72
2022-07-31T01:48:40.603Z,12.72
2022-07-31T01:49:11.190Z,12.72
2022-07-31T01:49:44.607Z,12.72
2022-07-31T01:50:42.702Z,12.72
2022-07-31T01:50:49.434Z,12.72
2022-07-31T01:51:20.457Z,12.61
2022-07-31T01:51:43.472Z,12.61
2022-07-31T01:52:06.442Z,12.61
2022-07-31T01:52:40.453Z,12.61
2022-07-31T01:53:12.275Z,12.50
2022-07-31T01:53:44.201Z,12.50
2022-07-31T01:54:17.682Z,12.72
2022-07-31T01:54:40.031Z,12.72
2022-07-31T01:55:07.873Z,12.72
2022-07-31T01:56:02.249Z,12.72
2022-07-31T01:56:08.368Z,12.72
2022-07-31T01:56:41.602Z,12.77
2022-07-31T01:57:10.830Z,12.77
2022-07-31T01:57:45.379Z,12.77
2022-07-31T01:58:16.122Z,12.77
2022-07-31T01:58:38.640Z,12.77
2022-07-31T01:59:01.314Z,12.77
2022-07-31T01:59:44.504Z,12.77
2022-07-31T02:00:33.298Z,12.77
2022-07-31T02:00:40.135Z,12.72
2022-07-31T02:01:11.625Z,12.72
2022-07-31T02:01:44.300Z,12.72
2022-07-31T02:02:16.252Z,12.72
2022-07-31T02:02:42.312Z,12.72
2022-07-31T02:03:09.608Z,12.72
2022-07-31T02:03:43.892Z,12.88
2022-07-31T02:04:08.358Z,12.88
2022-07-31T02:04:41.089Z,12.88
2022-07-31T02:05:13.112Z,13.00
2022-07-31T02:05:44.861Z,13.00
2022-07-31T02:06:16.514Z,13.00
2022-07-31T02:06:39.373Z,13.00
2022-07-31T02:07:01.792Z,13.00
2022-07-31T02:07:36.896Z,13.00
2022-07-31T02:08:11.365Z,13.00
2022-07-31T02:08:35.589Z,13.00
2022-07-31T02:09:11.178Z,12.88
2022-07-31T02:09:52.267Z,12.88
2022-07-31T02:10:16.271Z,12.88
2022-07-31T02:10:39.818Z,12.88
2022-07-31T02:11:02.147Z,12.88
2022-07-31T02:11:53.216Z,12.61
2022-07-31T02:12:09.786Z,12.61
2022-07-31T02:12:40.205Z,12.61
2022-07-31T02:13:11.120Z,12.61
2022-07-31T02:13:44.043Z,12.61
2022-07-31T02:14:16.174Z,12.61
2022-07-31T02:14:40.921Z,12.61
2022-07-31T02:15:03.621Z,12.77
2022-07-31T02:15:36.217Z,12.77
2022-07-31T02:16:08.389Z,12.88
2022-07-31T02:16:40.164Z,12.88
2022-07-31T02:17:10.649Z,12.88
2022-07-31T02:17:46.669Z,12.72
2022-07-31T02:18:16.348Z,12.72
2022-07-31T02:18:39.572Z,12.72
2022-07-31T02:19:01.894Z,12.72
2022-07-31T02:19:36.221Z,12.61
2022-07-31T02:20:08.181Z,12.77
2022-07-31T02:20:40.537Z,12.77
2022-07-31T02:21:06.262Z,12.77
2022-07-31T02:21:44.735Z,12.77
2022-07-31T02:22:16.155Z,12.77
2022-07-31T02:22:40.486Z,12.77
2022-07-31T02:23:01.650Z,12.77
2022-07-31T02:23:36.879Z,12.77
2022-07-31T02:24:08.195Z,12.77
2022-07-31T02:24:40.306Z,12.77
2022-07-31T02:25:10.666Z,12.77
2022-07-31T02:25:44.165Z,12.72
2022-07-31T02:26:18.657Z,12.72
2022-07-31T02:26:38.757Z,12.72
2022-07-31T02:27:01.262Z,12.72
2022-07-31T02:27:58.355Z,12.72
2022-07-31T02:28:08.405Z,12.61
2022-07-31T02:28:40.396Z,12.61
2022-07-31T02:29:19.875Z,12.61
2022-07-31T02:29:44.158Z,12.61
2022-07-31T02:30:17.275Z,12.61
2022-07-31T02:30:40.019Z,12.61
2022-07-31T02:31:02.134Z,12.61
2022-07-31T02:31:36.735Z,12.61
2022-07-31T02:32:08.289Z,12.61
2022-07-31T02:32:41.129Z,12.61
2022-07-31T02:33:11.429Z,12.50
2022-07-31T02:33:51.367Z,12.50
2022-07-31T02:34:13.138Z,12.50
2022-07-31T02:34:42.579Z,12.50
2022-07-31T02:35:20.230Z,12.50
2022-07-31T02:35:44.069Z,12.50
2022-07-31T02:36:05.684Z,12.50
2022-07-31T02:36:40.180Z,12.50
2022-07-31T02:37:10.735Z,12.50
2022-07-31T02:37:49.153Z,12.50
2022-07-31T02:38:17.178Z,12.50
2022-07-31T02:38:42.853Z,12.72
2022-07-31T02:39:20.596Z,12.72
2022-07-31T02:39:43.147Z,12.72
2022-07-31T02:40:05.469Z,12.61
2022-07-31T02:40:44.413Z,12.61
2022-07-31T02:41:06.873Z,12.61
2022-07-31T02:41:44.517Z,12.61
2022-07-31T02:42:16.554Z,12.50
2022-07-31T02:42:38.649Z,12.50
2022-07-31T02:43:01.017Z,12.50
2022-07-31T02:43:36.246Z,12.50
2022-07-31T02:44:11.678Z,12.50
2022-07-31T02:44:40.101Z,12.50
2022-07-31T02:45:10.741Z,12.50
2022-07-31T02:45:51.652Z,12.50
2022-07-31T02:46:16.200Z,12.38
2022-07-31T02:46:39.346Z,12.38
2022-07-31T02:47:01.458Z,12.38
2022-07-31T02:47:36.062Z,12.38
2022-07-31T02:48:08.264Z,12.38
2022-07-31T02:48:40.193Z,12.38
2022-07-31T02:49:12.307Z,12.38
2022-07-31T02:49:44.117Z,12.38
2022-07-31T02:50:16.141Z,12.27
2022-07-31T02:50:38.914Z,12.27
2022-07-31T02:51:01.290Z,12.27
2022-07-31T02:51:39.686Z,12.27
2022-07-31T02:52:08.733Z,12.27
2022-07-31T02:52:40.093Z,12.27
2022-07-31T02:53:10.866Z,12.22
2022-07-31T02:53:44.103Z,12.22
2022-07-31T02:54:16.008Z,12.22
2022-07-31T02:54:39.426Z,12.22
2022-07-31T02:55:01.762Z,12.22
2022-07-31T02:55:37.732Z,12.22
2022-07-31T02:56:08.020Z,12.22
2022-07-31T02:56:40.140Z,12.22
2022-07-31T02:57:14.190Z,12.22
2022-07-31T02:57:44.485Z,12.22
2022-07-31T02:58:16.090Z,12.22
2022-07-31T02:58:40.411Z,12.22
2022-07-31T02:59:01.265Z,12.27
2022-07-31T02:59:38.592Z,12.27
2022-07-31T03:00:09.637Z,12.27
2022-07-31T03:00:40.392Z,12.27
2022-07-31T03:01:10.726Z,12.27
2022-07-31T03:01:44.161Z,12.27
2022-07-31T03:02:16.181Z,12.27
2022-07-31T03:02:39.637Z,12.27
2022-07-31T03:03:01.998Z,12.27
2022-07-31T03:03:37.805Z,12.27
2022-07-31T03:04:09.640Z,12.27
2022-07-31T03:04:40.026Z,12.27
2022-07-31T03:05:10.729Z,12.27
2022-07-31T03:05:47.529Z,12.27
2022-07-31T03:06:16.129Z,12.27
2022-07-31T03:06:40.974Z,12.27
2022-07-31T03:07:01.712Z,12.27
2022-07-31T03:07:38.465Z,12.22
2022-07-31T03:08:08.504Z,12.22
2022-07-31T03:08:40.155Z,12.22
2022-07-31T03:09:10.742Z,12.22
2022-07-31T03:09:44.283Z,12.22
2022-07-31T03:10:16.033Z,12.22
2022-07-31T03:10:39.047Z,12.22
2022-07-31T03:11:01.446Z,12.22
2022-07-31T03:11:36.105Z,12.22
2022-07-31T03:12:08.062Z,12.22
2022-07-31T03:12:40.293Z,12.22
2022-07-31T03:13:14.322Z,12.22
2022-07-31T03:13:44.163Z,12.11
2022-07-31T03:14:15.998Z,12.11
2022-07-31T03:14:39.505Z,12.11
2022-07-31T03:15:01.913Z,12.11
2022-07-31T03:15:36.520Z,12.11
2022-07-31T03:16:08.272Z,12.11
2022-07-31T03:16:40.139Z,12.11
2022-07-31T03:17:10.632Z,12.11
2022-07-31T03:17:44.105Z,12.11
2022-07-31T03:18:16.135Z,12.11
2022-07-31T03:18:40.198Z,12.11
2022-07-31T03:19:01.431Z,12.11
2022-07-31T03:19:36.653Z,12.11
2022-07-31T03:20:08.219Z,12.11
2022-07-31T03:20:40.488Z,12.11
2022-07-31T03:21:10.734Z,12.11
2022-07-31T03:21:44.151Z,12.11
2022-07-31T03:22:16.013Z,12.11
2022-07-31T03:22:40.626Z,12.11
2022-07-31T03:23:01.129Z,12.11
2022-07-31T03:23:39.525Z,12.11
2022-07-31T03:24:08.092Z,12.11
2022-07-31T03:24:41.064Z,12.00
2022-07-31T03:25:20.106Z,12.00
2022-07-31T03:25:44.293Z,12.00
2022-07-31T03:26:16.090Z,12.00
2022-07-31T03:26:38.955Z,12.00
2022-07-31T03:27:01.237Z,12.00
2022-07-31T03:27:36.133Z,12.00
2022-07-31T03:28:08.168Z,12.00
2022-07-31T03:28:42.211Z,12.00
2022-07-31T03:29:43.391Z,12.00
2022-07-31T03:29:52.698Z,12.00
2022-07-31T03:30:18.597Z,12.00
2022-07-31T03:30:37.833Z,12.00
2022-07-31T03:31:00.376Z,12.00
2022-07-31T03:31:36.216Z,12.00
2022-07-31T03:32:08.111Z,12.00
2022-07-31T03:32:42.238Z,12.00
2022-07-31T03:33:10.737Z,12.00
2022-07-31T03:33:44.182Z,12.00
2022-07-31T03:34:19.475Z,12.00
2022-07-31T03:34:38.846Z,12.00
2022-07-31T03:35:01.903Z,12.00
2022-07-31T03:35:39.194Z,12.00
2022-07-31T03:36:08.179Z,12.00
2022-07-31T03:36:40.507Z,12.00
2022-07-31T03:37:10.672Z,12.11
2022-07-31T03:37:44.017Z,12.11
2022-07-31T03:38:38.247Z,12.11
2022-07-31T03:38:50.907Z,12.11
2022-07-31T03:39:14.936Z,12.22
2022-07-31T03:39:44.431Z,12.22
2022-07-31T03:40:07.045Z,12.22
2022-07-31T03:40:40.152Z,12.22
2022-07-31T03:41:10.761Z,12.22
2022-07-31T03:41:44.093Z,12.22
2022-07-31T03:42:18.741Z,12.27
2022-07-31T03:42:39.006Z,12.27
2022-07-31T03:43:01.416Z,12.27
2022-07-31T03:43:46.857Z,12.27
2022-07-31T03:44:08.116Z,12.27
2022-07-31T03:44:43.864Z,12.27
2022-07-31T03:45:10.796Z,12.27
2022-07-31T03:45:44.833Z,12.27
2022-07-31T03:46:15.969Z,12.27
2022-07-31T03:46:40.278Z,12.27
2022-07-31T03:47:02.583Z,12.27
2022-07-31T03:47:36.647Z,12.27
2022-07-31T03:48:08.041Z,12.27
2022-07-31T03:48:40.679Z,12.27
2022-07-31T03:49:10.998Z,12.27
2022-07-31T03:49:44.911Z,12.38
2022-07-31T03:50:16.136Z,12.38
2022-07-31T03:50:40.007Z,12.38
2022-07-31T03:51:09.699Z,12.38
2022-07-31T03:51:41.531Z,12.38
2022-07-31T03:52:11.990Z,12.38
2022-07-31T03:52:40.285Z,12.38
2022-07-31T03:53:11.308Z,12.38
2022-07-31T03:53:47.047Z,12.38
2022-07-31T03:54:16.146Z,12.38
2022-07-31T03:54:40.425Z,12.38
2022-07-31T03:55:05.104Z,12.38
2022-07-31T03:55:36.186Z,12.38
2022-07-31T03:56:08.207Z,12.38
2022-07-31T03:56:40.176Z,12.38
2022-07-31T03:57:10.776Z,12.38
2022-07-31T03:57:49.695Z,12.38
2022-07-31T03:58:16.313Z,12.38
2022-07-31T03:58:38.939Z,12.38
2022-07-31T03:59:05.812Z,12.38
2022-07-31T03:59:39.828Z,12.38
2022-07-31T04:00:16.418Z,12.38
2022-07-31T04:00:40.415Z,12.38
2022-07-31T04:01:12.189Z,12.38
2022-07-31T04:01:57.801Z,12.38
2022-07-31T04:02:18.656Z,12.38
2022-07-31T04:02:39.320Z,12.38
2022-07-31T04:03:03.122Z,12.38
2022-07-31T04:03:36.568Z,12.50
2022-07-31T04:04:08.734Z,12.50
2022-07-31T04:04:40.026Z,12.50
2022-07-31T04:05:10.755Z,12.50
2022-07-31T04:05:45.822Z,12.61
2022-07-31T04:06:16.180Z,12.61
2022-07-31T04:06:39.978Z,12.61
2022-07-31T04:07:01.661Z,12.61
2022-07-31T04:07:36.378Z,12.72
2022-07-31T04:08:09.118Z,12.72
2022-07-31T04:08:40.209Z,12.72
2022-07-31T04:09:15.512Z,12.72
2022-07-31T04:09:44.690Z,12.61
2022-07-31T04:10:16.377Z,12.61
2022-07-31T04:10:44.909Z,12.61
2022-07-31T04:11:01.859Z,12.61
2022-07-31T04:11:36.563Z,12.61
2022-07-31T04:12:12.093Z,12.61
2022-07-31T04:12:40.601Z,12.61
2022-07-31T04:13:10.878Z,12.61
2022-07-31T04:13:44.175Z,12.61
2022-07-31T04:14:16.665Z,12.61
2022-07-31T04:14:39.042Z,12.50
2022-07-31T04:15:05.708Z,12.50
2022-07-31T04:15:37.644Z,12.50
2022-07-31T04:16:09.125Z,12.50
2022-07-31T04:16:40.740Z,12.50
2022-07-31T04:17:11.020Z,12.50
2022-07-31T04:17:44.299Z,12.50
2022-07-31T04:18:21.919Z,12.50
2022-07-31T04:18:39.096Z,12.61
2022-07-31T04:19:02.238Z,12.61
2022-07-31T04:19:36.464Z,12.61
2022-07-31T04:20:08.234Z,12.61
2022-07-31T04:20:42.205Z,12.61
2022-07-31T04:21:14.527Z,12.61
2022-07-31T04:21:44.144Z,12.61
2022-07-31T04:22:16.093Z,12.61
2022-07-31T04:22:38.856Z,12.61
2022-07-31T04:23:01.764Z,12.61
2022-07-31T04:23:36.408Z,12.61
2022-07-31T04:24:09.184Z,12.61
2022-07-31T04:24:41.481Z,12.72
2022-07-31T04:25:11.293Z,12.72
2022-07-31T04:25:44.129Z,12.72
2022-07-31T04:26:25.530Z,12.72
2022-07-31T04:26:39.248Z,12.72
2022-07-31T04:27:01.564Z,12.72
2022-07-31T04:27:48.470Z,12.77
2022-07-31T04:28:08.077Z,12.77
2022-07-31T04:28:40.103Z,12.77
2022-07-31T04:29:16.300Z,12.77
2022-07-31T04:29:44.403Z,12.77
2022-07-31T04:30:17.907Z,12.72
2022-07-31T04:30:39.092Z,12.72
2022-07-31T04:31:02.152Z,12.72
2022-07-31T04:31:36.251Z,12.77
2022-07-31T04:32:08.071Z,12.77
2022-07-31T04:32:40.635Z,12.77
2022-07-31T04:33:12.201Z,12.77
2022-07-31T04:33:47.313Z,12.77
2022-07-31T04:34:16.057Z,12.77
2022-07-31T04:34:38.787Z,12.77
2022-07-31T04:35:01.666Z,12.77
2022-07-31T04:35:36.201Z,12.77
2022-07-31T04:36:08.266Z,12.88
2022-07-31T04:36:40.198Z,12.88
2022-07-31T04:37:10.723Z,12.88
2022-07-31T04:37:48.605Z,12.88
2022-07-31T04:38:17.573Z,12.72
2022-07-31T04:38:38.899Z,12.72
2022-07-31T04:39:02.505Z,12.77
2022-07-31T04:39:36.577Z,12.77
2022-07-31T04:40:09.699Z,12.77
2022-07-31T04:40:41.232Z,12.88
2022-07-31T04:41:12.056Z,12.88
2022-07-31T04:41:44.548Z,12.88
2022-07-31T04:42:19.940Z,12.88
2022-07-31T04:42:43.968Z,12.88
2022-07-31T04:43:20.137Z,12.88
2022-07-31T04:43:42.770Z,12.88
2022-07-31T04:44:05.134Z,13.00
2022-07-31T04:44:41.255Z,13.00
2022-07-31T04:45:10.939Z,13.00
2022-07-31T04:45:44.173Z,13.00
2022-07-31T04:46:17.316Z,13.00
2022-07-31T04:46:38.823Z,13.00
2022-07-31T04:47:01.620Z,13.00
2022-07-31T04:47:39.727Z,13.11
2022-07-31T04:48:08.607Z,13.11
2022-07-31T04:48:40.745Z,13.11
2022-07-31T04:49:12.460Z,13.11
2022-07-31T04:49:44.640Z,13.11
2022-07-31T04:50:16.853Z,13.11
2022-07-31T04:50:39.528Z,13.11
2022-07-31T04:51:01.961Z,13.22
2022-07-31T04:51:37.760Z,13.22
2022-07-31T04:52:08.061Z,13.22
2022-07-31T04:52:41.076Z,13.22
2022-07-31T04:53:14.534Z,13.27
2022-07-31T04:53:50.077Z,13.27
2022-07-31T04:54:12.702Z,13.11
2022-07-31T04:54:42.335Z,13.22
2022-07-31T04:55:20.410Z,13.22
2022-07-31T04:55:42.690Z,13.38
2022-07-31T04:56:05.632Z,13.22
2022-07-31T04:56:40.012Z,13.22
2022-07-31T04:57:10.875Z,13.27
2022-07-31T04:57:43.986Z,13.27
2022-07-31T04:58:16.059Z,13.27
2022-07-31T04:58:42.472Z,13.27
2022-07-31T04:59:23.466Z,13.27
2022-07-31T05:00:08.534Z,13.38
2022-07-31T05:00:40.486Z,13.38
2022-07-31T05:01:10.852Z,13.50
2022-07-31T05:01:44.273Z,13.50
2022-07-31T05:02:16.458Z,13.50
2022-07-31T05:02:39.058Z,13.50
2022-07-31T05:03:02.966Z,13.50
2022-07-31T05:03:37.055Z,13.61
2022-07-31T05:04:09.218Z,13.61
2022-07-31T05:04:40.178Z,13.61
2022-07-31T05:05:10.897Z,13.61
2022-07-31T05:05:44.127Z,13.61
2022-07-31T05:06:16.730Z,13.61
2022-07-31T05:06:39.575Z,13.72
2022-07-31T05:07:02.151Z,13.72
2022-07-31T05:07:39.378Z,13.72
2022-07-31T05:08:08.202Z,13.72
2022-07-31T05:08:44.811Z,13.72
2022-07-31T05:09:08.957Z,13.72
2022-07-31T05:09:44.165Z,13.72
2022-07-31T05:10:15.923Z,13.77
2022-07-31T05:10:40.113Z,13.61
2022-07-31T05:11:02.054Z,13.61
2022-07-31T05:11:36.526Z,13.72
2022-07-31T05:12:08.074Z,13.72
2022-07-31T05:12:40.427Z,13.72
2022-07-31T05:13:10.763Z,13.72
2022-07-31T05:13:44.044Z,13.72
2022-07-31T05:14:16.019Z,13.72
2022-07-31T05:14:40.732Z,13.72
2022-07-31T05:15:06.616Z,13.72
2022-07-31T05:15:36.170Z,13.72
2022-07-31T05:16:08.200Z,13.72
2022-07-31T05:16:40.027Z,13.72
2022-07-31T05:17:06.110Z,13.77
2022-07-31T05:17:44.816Z,13.61
2022-07-31T05:18:17.091Z,13.61
2022-07-31T05:18:39.748Z,13.61
2022-07-31T05:19:02.445Z,13.61
2022-07-31T05:19:36.504Z,13.72
2022-07-31T05:20:08.263Z,13.72
2022-07-31T05:20:41.083Z,13.72
2022-07-31T05:21:11.354Z,13.77
2022-07-31T05:21:53.588Z,13.77
2022-07-31T05:22:10.850Z,13.77
2022-07-31T05:22:42.429Z,13.77
2022-07-31T05:23:19.904Z,13.88
2022-07-31T05:23:42.864Z,13.88
2022-07-31T05:24:05.622Z,13.88
2022-07-31T05:24:40.199Z,13.88
2022-07-31T05:25:12.194Z,14.00
2022-07-31T05:25:44.531Z,14.00
2022-07-31T05:26:16.605Z,14.00
2022-07-31T05:26:41.787Z,14.00
2022-07-31T05:27:01.674Z,14.00
2022-07-31T05:27:36.278Z,13.88
2022-07-31T05:28:09.664Z,13.88
2022-07-31T05:28:40.361Z,13.88
2022-07-31T05:29:16.696Z,13.88
2022-07-31T05:29:44.527Z,13.88
2022-07-31T05:30:17.516Z,14.00
2022-07-31T05:30:40.198Z,14.00
2022-07-31T05:31:03.528Z,14.00
2022-07-31T05:31:37.184Z,14.00
2022-07-31T05:32:08.719Z,14.00
2022-07-31T05:32:40.229Z,14.11
2022-07-31T05:33:11.348Z,14.11
2022-07-31T05:33:43.960Z,14.11
2022-07-31T05:34:15.981Z,14.11
2022-07-31T05:34:40.263Z,14.11
2022-07-31T05:35:02.337Z,14.11
2022-07-31T05:35:36.809Z,14.11
2022-07-31T05:36:08.679Z,14.11
2022-07-31T05:36:40.713Z,14.22
2022-07-31T05:37:10.828Z,14.22
2022-07-31T05:37:44.038Z,14.27
2022-07-31T05:38:17.514Z,14.27
2022-07-31T05:38:40.133Z,14.27
2022-07-31T05:39:06.836Z,14.11
2022-07-31T05:39:36.169Z,14.11
2022-07-31T05:40:09.930Z,14.11
2022-07-31T05:40:40.182Z,14.22
2022-07-31T05:41:11.595Z,14.22
2022-07-31T05:41:45.032Z,14.22
2022-07-31T05:42:23.085Z,14.22
2022-07-31T05:42:45.492Z,14.22
2022-07-31T05:43:20.029Z,14.11
2022-07-31T05:43:43.782Z,14.11
2022-07-31T05:44:08.629Z,14.11
2022-07-31T05:44:39.894Z,14.11
2022-07-31T05:45:10.963Z,14.11
2022-07-31T05:45:43.905Z,13.88
2022-07-31T05:46:16.158Z,14.00
2022-07-31T05:46:38.909Z,14.00
2022-07-31T05:47:01.130Z,14.00
2022-07-31T05:47:39.986Z,14.00
2022-07-31T05:48:08.199Z,14.00
2022-07-31T05:48:39.971Z,14.00
2022-07-31T05:49:10.837Z,13.88
2022-07-31T05:49:44.037Z,13.88
2022-07-31T05:50:16.038Z,13.88
2022-07-31T05:50:39.252Z,13.88
2022-07-31T05:51:05.417Z,14.22
2022-07-31T05:51:36.248Z,14.00
2022-07-31T05:52:08.109Z,14.00
2022-07-31T05:52:40.036Z,14.11
2022-07-31T05:53:10.912Z,14.11
2022-07-31T05:53:45.882Z,14.11
2022-07-31T05:54:15.879Z,14.11
2022-07-31T05:54:39.295Z,14.11
2022-07-31T05:55:03.462Z,14.11
2022-07-31T05:55:36.276Z,14.11
2022-07-31T05:56:08.001Z,14.11
2022-07-31T05:56:40.025Z,14.11
2022-07-31T05:57:10.787Z,14.11
2022-07-31T05:57:43.998Z,14.11
2022-07-31T05:58:16.762Z,14.11
2022-07-31T05:58:40.293Z,14.11
2022-07-31T05:59:02.716Z,14.11
2022-07-31T05:59:35.970Z,14.22
2022-07-31T06:00:08.140Z,14.22
2022-07-31T06:00:42.474Z,14.22
2022-07-31T06:01:10.827Z,14.22
2022-07-31T06:01:44.432Z,14.22
2022-07-31T06:02:16.028Z,14.22
2022-07-31T06:02:39.142Z,14.22
2022-07-31T06:03:52.763Z,14.22
2022-07-31T06:04:11.053Z,14.22
2022-07-31T06:04:40.382Z,14.22
2022-07-31T06:05:11.100Z,14.22
2022-07-31T06:05:44.342Z,14.27
2022-07-31T06:06:17.166Z,14.27
2022-07-31T06:06:39.941Z,14.27
2022-07-31T06:07:03.289Z,14.27
2022-07-31T06:07:36.179Z,14.11
2022-07-31T06:08:08.789Z,14.11
2022-07-31T06:08:40.106Z,14.11
2022-07-31T06:09:10.872Z,14.11
2022-07-31T06:09:44.301Z,14.22
2022-07-31T06:10:16.010Z,14.22
2022-07-31T06:10:41.263Z,14.22
2022-07-31T06:11:01.824Z,14.22
2022-07-31T06:11:36.005Z,14.22
2022-07-31T06:12:08.053Z,14.22
2022-07-31T06:12:40.604Z,14.22
2022-07-31T06:13:11.041Z,14.22
2022-07-31T06:13:43.912Z,14.27
2022-07-31T06:14:15.936Z,14.27
2022-07-31T06:14:38.659Z,14.27
2022-07-31T06:15:01.887Z,14.11
2022-07-31T06:15:36.935Z,14.11
2022-07-31T06:16:08.567Z,14.11
2022-07-31T06:16:48.461Z,14.11
2022-07-31T06:17:10.694Z,14.11
2022-07-31T06:17:45.022Z,14.11
2022-07-31T06:18:22.177Z,13.88
2022-07-31T06:18:39.517Z,14.00
2022-07-31T06:19:02.631Z,14.00
2022-07-31T06:19:36.675Z,14.00
2022-07-31T06:20:08.399Z,14.00
2022-07-31T06:20:39.989Z,14.00
2022-07-31T06:21:44.263Z,13.88
2022-07-31T06:22:17.806Z,13.88
2022-07-31T06:22:40.302Z,13.88
2022-07-31T06:23:02.540Z,13.88
2022-07-31T06:23:36.640Z,14.22
2022-07-31T06:24:08.216Z,14.22
2022-07-31T06:24:40.570Z,14.22
2022-07-31T06:25:11.747Z,14.27
2022-07-31T06:25:44.406Z,14.27
2022-07-31T06:26:16.241Z,14.11
2022-07-31T06:26:39.012Z,14.11
2022-07-31T06:27:01.307Z,14.11
2022-07-31T06:27:36.107Z,14.11
2022-07-31T06:28:10.597Z,14.11